createdAt,value
2024-02-12T00:00:56.105Z,7.30
2024-02-12T00:03:24.022Z,9.90
2024-02-12T00:05:52.025Z,8.50
2024-02-12T00:08:19.804Z,9.10
2024-02-12T00:10:49.595Z,11.90
2024-02-12T00:13:19.328Z,9.40
2024-02-12T00:15:47.864Z,6.90
2024-02-12T00:18:16.445Z,8.70
2024-02-12T00:20:44.758Z,12.80
2024-02-12T00:23:12.610Z,12.80
2024-02-12T00:25:40.720Z,9.90
2024-02-12T00:28:09.783Z,10.60
2024-02-12T00:30:41.092Z,8.10
2024-02-12T00:35:40.315Z,7.20
2024-02-12T00:38:08.922Z,7.80
2024-02-12T00:40:36.572Z,14.00
2024-02-12T00:43:04.421Z,6.30
2024-02-12T00:45:32.496Z,8.00
2024-02-12T00:48:00.336Z,13.50
2024-02-12T00:50:28.259Z,10.40
2024-02-12T00:52:55.949Z,8.30
2024-02-12T00:55:23.752Z,7.60
2024-02-12T00:57:51.953Z,12.50
2024-02-12T01:00:22.032Z,8.50
2024-02-12T01:02:49.906Z,9.60
2024-02-12T01:05:19.463Z,8.90
2024-02-12T01:07:47.372Z,7.60
2024-02-12T01:10:16.848Z,9.70
2024-02-12T01:12:45.403Z,11.40
2024-02-12T01:15:13.904Z,9.40
2024-02-12T01:17:46.791Z,9.60
2024-02-12T01:20:19.070Z,8.50
2024-02-12T01:22:46.694Z,9.20
2024-02-12T01:25:14.444Z,8.70
2024-02-12T01:27:41.994Z,12.60
2024-02-12T01:30:10.890Z,8.60
2024-02-12T01:32:38.950Z,8.50
2024-02-12T01:35:10.015Z,9.80
2024-02-12T01:37:37.651Z,10.30
2024-02-12T01:40:10.352Z,13.50
2024-02-12T01:42:39.192Z,11.60
2024-02-12T01:45:15.709Z,8.60
2024-02-12T01:47:48.167Z,9.30
2024-02-12T01:50:19.914Z,9.20
2024-02-12T01:52:51.218Z,10.10
2024-02-12T01:55:22.372Z,7.80
2024-02-12T01:57:53.754Z,9.90
2024-02-12T02:02:55.986Z,7.60
2024-02-12T02:05:32.501Z,10.80
2024-02-12T02:08:02.477Z,10.00
2024-02-12T02:10:31.436Z,10.30
2024-02-12T02:13:03.097Z,10.10
2024-02-12T02:15:31.686Z,9.10
2024-02-12T02:17:59.388Z,12.50
2024-02-12T02:20:28.213Z,10.20
2024-02-12T02:22:56.687Z,11.30
2024-02-12T02:25:25.240Z,8.00
2024-02-12T02:27:52.952Z,10.40
2024-02-12T02:30:21.262Z,7.70
2024-02-12T02:32:51.099Z,10.50
2024-02-12T02:35:19.295Z,13.70
2024-02-12T02:37:47.057Z,12.00
2024-02-12T02:40:15.033Z,9.80
2024-02-12T02:42:42.782Z,10.20
2024-02-12T02:45:10.864Z,8.40
2024-02-12T02:47:44.789Z,8.00
2024-02-12T02:50:13.059Z,10.50
2024-02-12T02:52:41.479Z,9.90
2024-02-12T02:55:10.334Z,12.40
2024-02-12T02:57:40.797Z,13.50
2024-02-12T03:00:11.386Z,11.10
2024-02-12T03:02:39.041Z,9.70
2024-02-12T03:05:07.644Z,6.90
2024-02-12T03:07:39.166Z,7.40
2024-02-12T03:10:08.486Z,12.70
2024-02-12T03:12:36.074Z,13.10
2024-02-12T03:15:04.068Z,10.10
2024-02-12T03:17:31.784Z,9.20
2024-02-12T03:19:59.371Z,14.60
2024-02-12T03:22:26.941Z,12.90
2024-02-12T03:24:57.752Z,9.00
2024-02-12T03:27:34.454Z,12.70
2024-02-12T03:30:04.027Z,8.50
2024-02-12T03:32:32.169Z,12.60
2024-02-12T03:35:00.905Z,7.60
2024-02-12T03:37:28.916Z,9.90
2024-02-12T03:39:56.522Z,7.00
2024-02-12T03:42:27.373Z,11.20
2024-02-12T03:44:56.185Z,12.40
2024-02-12T03:47:39.842Z,9.60
2024-02-12T03:50:35.240Z,10.50
2024-02-12T03:53:24.701Z,12.60
2024-02-12T03:56:11.176Z,11.30
2024-02-12T03:58:58.661Z,10.10
2024-02-12T04:01:29.716Z,13.40
2024-02-12T04:03:57.474Z,10.00
2024-02-12T04:06:26.389Z,13.10
2024-02-12T04:08:54.357Z,9.10
2024-02-12T04:11:25.351Z,9.30
2024-02-12T04:13:56.117Z,11.90
2024-02-12T04:16:24.045Z,15.90
2024-02-12T04:18:51.764Z,8.10
2024-02-12T04:21:24.855Z,13.80
2024-02-12T04:23:53.944Z,9.30
2024-02-12T04:26:23.388Z,12.30
2024-02-12T04:28:51.342Z,11.30
2024-02-12T04:31:21.677Z,11.40
2024-02-12T04:33:49.404Z,10.70
2024-02-12T04:36:17.938Z,11.90
2024-02-12T04:39:01.279Z,9.80
2024-02-12T04:41:38.234Z,9.40
2024-02-12T04:44:06.174Z,11.50
2024-02-12T04:46:35.475Z,13.50
2024-02-12T04:49:03.224Z,14.40
2024-02-12T04:51:34.880Z,12.00
2024-02-12T04:54:24.095Z,11.40
2024-02-12T04:56:51.692Z,9.10
2024-02-12T04:59:23.057Z,9.00
2024-02-12T05:01:50.744Z,9.20
2024-02-12T05:04:21.728Z,8.80
2024-02-12T05:06:49.398Z,9.60
2024-02-12T05:09:17.036Z,12.00
2024-02-12T05:11:44.736Z,9.60
2024-02-12T05:14:12.384Z,9.50
2024-02-12T05:16:40.049Z,12.90
2024-02-12T05:19:27.164Z,10.20
2024-02-12T05:22:14.782Z,11.80
2024-02-12T05:24:42.279Z,14.50
2024-02-12T05:27:09.855Z,9.80
2024-02-12T05:29:39.364Z,9.20
2024-02-12T05:32:08.074Z,12.80
2024-02-12T05:34:35.713Z,9.70
2024-02-12T05:37:03.349Z,9.50
2024-02-12T05:39:35.094Z,16.00
2024-02-12T05:42:03.352Z,9.30
2024-02-12T05:44:37.101Z,9.40
2024-02-12T05:47:08.379Z,12.40
2024-02-12T05:49:36.189Z,9.10
2024-02-12T05:52:05.399Z,9.20
2024-02-12T05:54:32.887Z,10.60
2024-02-12T05:57:09.415Z,10.70
2024-02-12T05:59:37.014Z,10.00
2024-02-12T06:02:04.775Z,11.20
2024-02-12T06:04:32.934Z,11.30
2024-02-12T06:07:02.088Z,10.20
2024-02-12T06:09:30.598Z,10.80
2024-02-12T06:11:59.262Z,11.60
2024-02-12T06:14:26.807Z,10.00
2024-02-12T06:16:56.162Z,9.30
2024-02-12T06:19:23.775Z,9.90
2024-02-12T06:21:52.479Z,8.80
2024-02-12T06:24:20.050Z,10.00
2024-02-12T06:26:47.910Z,10.70
2024-02-12T06:29:15.557Z,9.80
2024-02-12T06:31:44.333Z,9.50
2024-02-12T06:34:12.875Z,9.70
2024-02-12T06:36:41.435Z,11.50
2024-02-12T06:39:09.037Z,7.30
2024-02-12T06:41:36.981Z,8.20
2024-02-12T06:44:05.122Z,10.30
2024-02-12T06:46:34.123Z,11.70
2024-02-12T06:49:02.483Z,11.30
2024-02-12T06:51:30.389Z,8.70
2024-02-12T06:53:57.789Z,10.50
2024-02-12T06:56:25.450Z,10.40
2024-02-12T06:58:53.011Z,11.20
2024-02-12T07:01:20.464Z,9.10
2024-02-12T07:03:48.357Z,11.60
2024-02-12T07:06:15.960Z,14.80
2024-02-12T07:08:43.972Z,10.50
2024-02-12T07:11:16.485Z,8.60
2024-02-12T07:13:44.185Z,10.50
2024-02-12T07:16:19.044Z,11.50
2024-02-12T07:18:47.779Z,10.70
2024-02-12T07:21:16.255Z,12.40
2024-02-12T07:23:45.601Z,12.90
2024-02-12T07:26:13.348Z,9.60
2024-02-12T07:28:41.251Z,10.10
2024-02-12T07:31:09.278Z,9.70
2024-02-12T07:33:37.257Z,12.20
2024-02-12T07:36:06.480Z,9.70
2024-02-12T07:38:34.062Z,10.80
2024-02-12T07:41:03.051Z,11.70
2024-02-12T07:43:31.545Z,10.50
2024-02-12T07:45:59.201Z,9.00
2024-02-12T07:48:28.235Z,10.60
2024-02-12T07:50:56.674Z,10.10
2024-02-12T07:53:27.441Z,8.80
2024-02-12T07:55:55.890Z,8.30
2024-02-12T07:58:24.132Z,10.10
2024-02-12T08:00:51.827Z,10.20
2024-02-12T08:03:20.972Z,9.70
2024-02-12T08:05:49.775Z,7.00
2024-02-12T08:08:18.530Z,10.40
2024-02-12T08:10:47.499Z,9.50
2024-02-12T08:13:15.299Z,9.10
2024-02-12T08:15:43.290Z,8.90
2024-02-12T08:18:11.155Z,10.30
2024-02-12T08:20:38.955Z,12.50
2024-02-12T08:23:07.965Z,8.10
2024-02-12T08:25:39.653Z,9.60
2024-02-12T08:28:09.052Z,13.70
2024-02-12T08:30:36.815Z,9.90
2024-02-12T08:33:05.449Z,11.40
2024-02-12T08:35:34.119Z,12.00
2024-02-12T08:38:01.774Z,9.90
2024-02-12T08:40:31.887Z,10.10
2024-02-12T08:43:00.162Z,11.40
2024-02-12T08:45:27.796Z,12.70
2024-02-12T08:47:55.312Z,10.10
2024-02-12T08:50:23.912Z,15.60
2024-02-12T08:52:52.331Z,10.80
2024-02-12T08:55:19.868Z,11.30
2024-02-12T08:57:47.369Z,9.80
2024-02-12T09:00:23.197Z,9.80
2024-02-12T09:02:50.924Z,10.00
2024-02-12T09:05:18.467Z,9.90
2024-02-12T09:07:46.203Z,13.60
2024-02-12T09:10:14.886Z,12.00
2024-02-12T09:12:52.263Z,10.90
2024-02-12T09:15:23.709Z,11.00
2024-02-12T09:17:52.251Z,12.70
2024-02-12T09:20:21.275Z,7.80
2024-02-12T09:22:49.536Z,10.10
2024-02-12T09:25:17.095Z,10.20
2024-02-12T09:27:48.053Z,13.00
2024-02-12T09:30:18.699Z,7.60
2024-02-12T09:32:49.086Z,9.60
2024-02-12T09:35:21.563Z,11.40
2024-02-12T09:37:51.134Z,11.30
2024-02-12T09:40:24.171Z,9.70
2024-02-12T09:42:56.249Z,10.20
2024-02-12T09:45:25.637Z,10.90
2024-02-12T09:47:56.131Z,10.30
2024-02-12T09:50:26.115Z,13.60
2024-02-12T09:52:58.268Z,9.10
2024-02-12T09:55:27.732Z,14.00
2024-02-12T09:57:55.306Z,9.70
2024-02-12T10:00:23.664Z,14.20
2024-02-12T10:02:54.697Z,11.70
2024-02-12T10:05:24.105Z,12.00
2024-02-12T10:07:51.909Z,13.80
2024-02-12T10:10:19.781Z,15.70
2024-02-12T10:12:55.003Z,13.10
2024-02-12T10:15:25.012Z,11.40
2024-02-12T10:17:56.533Z,12.20
2024-02-12T10:20:25.068Z,12.60
2024-02-12T10:22:52.530Z,12.00
2024-02-12T10:25:20.831Z,11.50
2024-02-12T10:27:48.340Z,15.90
2024-02-12T10:30:18.085Z,10.30
2024-02-12T10:32:52.267Z,13.90
2024-02-12T10:35:24.534Z,13.40
2024-02-12T10:37:53.606Z,11.00
2024-02-12T10:40:31.148Z,12.30
2024-02-12T10:43:06.715Z,10.90
2024-02-12T10:45:36.318Z,9.30
2024-02-12T10:48:06.046Z,12.00
2024-02-12T10:50:36.591Z,12.40
2024-02-12T10:53:06.391Z,12.60
2024-02-12T10:55:36.696Z,14.50
2024-02-12T10:58:05.917Z,17.10
2024-02-12T11:00:33.648Z,13.70
2024-02-12T11:03:04.701Z,14.50
2024-02-12T11:05:38.904Z,11.60
2024-02-12T11:08:11.278Z,14.40
2024-02-12T11:10:44.910Z,14.30
2024-02-12T11:13:17.635Z,15.60
2024-02-12T11:15:52.440Z,13.00
2024-02-12T11:18:24.185Z,14.40
2024-02-12T11:20:56.108Z,15.40
2024-02-12T11:23:25.580Z,15.00
2024-02-12T11:25:58.133Z,9.90
2024-02-12T11:28:29.102Z,13.00
2024-02-12T11:30:58.060Z,12.40
2024-02-12T11:33:26.577Z,12.10
2024-02-12T11:36:09.394Z,10.60
2024-02-12T11:38:47.955Z,12.70
2024-02-12T11:41:19.134Z,10.10
2024-02-12T11:43:49.087Z,10.30
2024-02-12T11:46:19.065Z,10.90
2024-02-12T11:48:47.172Z,12.10
2024-02-12T11:51:22.851Z,10.50
2024-02-12T11:53:53.617Z,9.20
2024-02-12T11:56:25.368Z,14.90
2024-02-12T11:58:58.002Z,12.20
2024-02-12T12:01:35.327Z,16.10
2024-02-12T12:04:03.137Z,11.80
2024-02-12T12:06:34.780Z,11.10
2024-02-12T12:09:10.115Z,12.90
2024-02-12T12:11:42.195Z,10.10
2024-02-12T12:14:10.442Z,12.40
2024-02-12T12:16:37.878Z,11.90
2024-02-12T12:19:08.394Z,12.50
2024-02-12T12:21:36.606Z,11.90
2024-02-12T12:24:04.951Z,10.60
2024-02-12T12:26:32.668Z,10.90
2024-02-12T12:29:03.486Z,12.20
2024-02-12T12:31:33.992Z,8.70
2024-02-12T12:34:02.051Z,9.40
2024-02-12T12:36:32.440Z,9.60
2024-02-12T12:39:00.207Z,7.60
2024-02-12T12:41:27.635Z,9.80
2024-02-12T12:43:55.097Z,9.00
2024-02-12T12:46:23.735Z,13.20
2024-02-12T12:48:52.365Z,8.60
2024-02-12T12:51:19.999Z,7.10
2024-02-12T12:53:47.522Z,6.80
2024-02-12T12:56:15.112Z,9.00
2024-02-12T12:58:43.293Z,6.20
2024-02-12T13:01:13.627Z,11.00
2024-02-12T13:03:42.351Z,11.20
2024-02-12T13:06:11.462Z,12.60
2024-02-12T13:08:38.941Z,19.20
2024-02-12T13:11:09.062Z,11.70
2024-02-12T13:13:36.932Z,12.40
2024-02-12T13:16:06.856Z,13.50
2024-02-12T13:18:34.601Z,11.00
2024-02-12T13:21:03.605Z,12.20
2024-02-12T13:23:31.240Z,14.10
2024-02-12T13:25:58.730Z,16.50
2024-02-12T13:28:26.452Z,15.60
2024-02-12T13:30:55.050Z,15.40
2024-02-12T13:33:23.178Z,11.70
2024-02-12T13:35:52.445Z,11.20
2024-02-12T13:38:22.161Z,9.40
2024-02-12T13:40:50.422Z,7.80
2024-02-12T13:43:22.190Z,5.00
2024-02-12T13:45:52.496Z,5.80
2024-02-12T13:48:22.051Z,7.10
2024-02-12T13:50:50.875Z,8.30
2024-02-12T13:53:18.799Z,8.10
2024-02-12T13:55:46.627Z,8.50
2024-02-12T13:58:14.056Z,7.50
2024-02-12T14:00:59.011Z,9.10
2024-02-12T14:03:34.189Z,7.40
2024-02-12T14:06:02.487Z,6.80
2024-02-12T14:08:30.212Z,6.40
2024-02-12T14:10:58.264Z,7.00
2024-02-12T14:13:25.931Z,6.90
2024-02-12T14:16:05.562Z,8.20
2024-02-12T14:18:39.168Z,6.60
2024-02-12T14:21:08.054Z,6.50
2024-02-12T14:23:36.632Z,5.90
2024-02-12T14:26:05.803Z,6.60
2024-02-12T14:28:33.694Z,9.80
2024-02-12T14:31:01.490Z,6.80
2024-02-12T14:33:29.281Z,5.40
2024-02-12T14:35:57.075Z,5.30
2024-02-12T14:38:25.706Z,5.20
2024-02-12T14:40:54.117Z,4.60
2024-02-12T14:43:22.749Z,6.50
2024-02-12T14:45:50.736Z,4.90
2024-02-12T14:48:19.256Z,6.90
2024-02-12T14:50:47.044Z,5.20
2024-02-12T14:53:14.514Z,6.60
2024-02-12T14:55:42.395Z,5.00
2024-02-12T14:58:11.817Z,6.40
2024-02-12T15:00:40.459Z,5.10
2024-02-12T15:03:09.326Z,3.70
2024-02-12T15:05:37.822Z,5.50
2024-02-12T15:08:07.408Z,6.00
2024-02-12T15:10:39.628Z,4.80
2024-02-12T15:13:07.800Z,4.70
2024-02-12T15:15:36.225Z,6.00
2024-02-12T15:18:04.475Z,3.30
2024-02-12T15:20:35.232Z,3.50
2024-02-12T15:23:05.801Z,6.00
2024-02-12T15:25:33.794Z,4.80
2024-02-12T15:28:02.972Z,4.50
2024-02-12T15:30:31.561Z,6.40
2024-02-12T15:32:59.884Z,6.20
2024-02-12T15:35:28.257Z,4.20
2024-02-12T15:37:59.763Z,4.50
2024-02-12T15:43:02.660Z,3.10
2024-02-12T15:45:33.206Z,2.50
2024-02-12T15:48:01.952Z,2.10
2024-02-12T15:50:30.211Z,3.00
2024-02-12T15:52:58.023Z,4.40
2024-02-12T15:55:27.760Z,3.40
2024-02-12T15:57:56.365Z,2.40
2024-02-12T16:00:27.588Z,3.70
2024-02-12T16:02:57.657Z,4.30
2024-02-12T16:06:02.526Z,2.90
2024-02-12T16:08:31.035Z,3.70
2024-02-12T16:11:01.257Z,4.60
2024-02-12T16:13:28.892Z,4.40
2024-02-12T16:15:58.081Z,4.80
2024-02-12T16:18:26.303Z,3.70
2024-02-12T16:20:54.597Z,3.70
2024-02-12T16:23:22.931Z,3.40
2024-02-12T16:25:50.587Z,5.40
2024-02-12T16:28:18.569Z,3.70
2024-02-12T16:30:46.269Z,3.70
2024-02-12T16:33:13.797Z,4.40
2024-02-12T16:35:41.347Z,5.70
2024-02-12T16:38:10.420Z,4.10
2024-02-12T16:40:41.254Z,6.70
2024-02-12T16:43:13.673Z,6.00
2024-02-12T16:45:42.163Z,4.20
2024-02-12T16:48:13.479Z,4.30
2024-02-12T16:50:44.522Z,4.00
2024-02-12T16:53:12.407Z,6.10
2024-02-12T16:55:40.184Z,4.30
2024-02-12T16:58:07.947Z,7.40
2024-02-12T17:00:35.556Z,5.10
2024-02-12T17:03:04.663Z,5.20
2024-02-12T17:05:32.541Z,5.10
2024-02-12T17:08:07.190Z,5.70
2024-02-12T17:10:37.626Z,5.30
2024-02-12T17:13:06.419Z,6.30
2024-02-12T17:15:37.879Z,6.20
2024-02-12T17:18:10.392Z,7.30
2024-02-12T17:20:38.660Z,5.20
2024-02-12T17:23:09.408Z,6.90
2024-02-12T17:25:40.951Z,4.10
2024-02-12T17:28:08.495Z,4.90
2024-02-12T17:30:36.178Z,5.10
2024-02-12T17:33:08.672Z,4.40
2024-02-12T17:35:37.335Z,5.50
2024-02-12T17:38:05.731Z,4.40
2024-02-12T17:40:34.886Z,5.00
2024-02-12T17:43:02.606Z,3.50
2024-02-12T17:45:30.088Z,5.40
2024-02-12T17:47:58.076Z,4.40
2024-02-12T17:50:25.988Z,3.50
2024-02-12T17:52:53.459Z,4.00
2024-02-12T17:55:21.021Z,4.20
2024-02-12T17:57:48.598Z,3.10
2024-02-12T18:00:16.505Z,5.60
2024-02-12T18:02:44.288Z,3.20
2024-02-12T18:05:14.013Z,5.00
2024-02-12T18:07:42.371Z,4.40
2024-02-12T18:10:12.185Z,4.10
2024-02-12T18:12:45.513Z,4.80
2024-02-12T18:15:15.279Z,6.50
2024-02-12T18:17:43.823Z,5.30
2024-02-12T18:20:12.613Z,6.80
2024-02-12T18:22:40.242Z,8.20
2024-02-12T18:25:13.257Z,9.80
2024-02-12T18:27:41.828Z,6.40
2024-02-12T18:30:12.453Z,6.70
2024-02-12T18:32:42.995Z,6.00
2024-02-12T18:35:13.709Z,5.70
2024-02-12T18:37:41.792Z,7.20
2024-02-12T18:40:19.478Z,6.20
2024-02-12T18:42:47.897Z,6.40
2024-02-12T18:45:20.250Z,5.90
2024-02-12T18:47:49.805Z,8.60
2024-02-12T18:50:18.744Z,6.40
2024-02-12T18:52:50.121Z,6.70
2024-02-12T18:57:48.495Z,6.10
2024-02-12T19:00:17.214Z,7.40
2024-02-12T19:02:50.156Z,6.50
2024-02-12T19:05:26.012Z,8.60
2024-02-12T19:07:53.662Z,6.00
2024-02-12T19:10:21.120Z,6.30
2024-02-12T19:12:50.575Z,4.80
2024-02-12T19:15:18.970Z,7.90
2024-02-12T19:17:47.199Z,5.50
2024-02-12T19:20:16.345Z,7.60
2024-02-12T19:22:44.056Z,7.00
2024-02-12T19:25:11.574Z,5.30
2024-02-12T19:27:39.078Z,5.90
2024-02-12T19:30:11.251Z,5.30
2024-02-12T19:32:42.483Z,7.20
2024-02-12T19:37:39.721Z,5.70
2024-02-12T19:40:14.256Z,6.00
2024-02-12T19:42:46.148Z,6.50
2024-02-12T19:45:15.714Z,6.10
2024-02-12T19:47:44.080Z,7.20
2024-02-12T19:50:12.928Z,7.40
2024-02-12T19:52:42.293Z,8.00
2024-02-12T19:55:10.063Z,6.30
2024-02-12T19:57:41.509Z,7.60
2024-02-12T20:00:14.992Z,8.20
2024-02-12T20:02:49.399Z,6.90
2024-02-12T20:05:21.158Z,7.30
2024-02-12T20:07:51.711Z,9.70
2024-02-12T20:10:19.664Z,9.00
2024-02-12T20:12:47.113Z,9.20
2024-02-12T20:15:15.963Z,9.90
2024-02-12T20:17:47.683Z,9.20
2024-02-12T20:20:15.680Z,9.70
2024-02-12T20:22:44.396Z,7.60
2024-02-12T20:25:12.575Z,11.40
2024-02-12T20:27:43.135Z,9.40
2024-02-12T20:30:12.674Z,9.10
2024-02-12T20:32:44.938Z,9.30
2024-02-12T20:35:16.483Z,10.00
2024-02-12T20:37:44.444Z,10.50
2024-02-12T20:40:15.572Z,10.30
2024-02-12T20:45:11.554Z,8.00
2024-02-12T20:47:41.502Z,8.10
2024-02-12T20:50:12.004Z,7.40
2024-02-12T20:52:40.217Z,6.80
2024-02-12T20:55:11.380Z,10.80
2024-02-12T21:00:07.776Z,7.10
2024-02-12T21:02:35.965Z,9.00
2024-02-12T21:05:05.664Z,7.70
2024-02-12T21:07:58.709Z,8.00
2024-02-12T21:10:28.111Z,8.60
2024-02-12T21:12:55.765Z,10.50
2024-02-12T21:15:23.303Z,10.00
2024-02-12T21:17:51.009Z,7.10
2024-02-12T21:20:19.282Z,9.50
2024-02-12T21:23:05.037Z,9.20
2024-02-12T21:25:32.891Z,9.40
2024-02-12T21:28:00.709Z,8.80
2024-02-12T21:30:29.100Z,8.60
2024-02-12T21:33:01.154Z,9.00
2024-02-12T21:35:29.901Z,8.10
2024-02-12T21:37:57.612Z,10.40
2024-02-12T21:40:27.139Z,8.60
2024-02-12T21:42:54.827Z,7.80
2024-02-12T21:45:22.856Z,7.90
2024-02-12T21:47:57.857Z,11.80
2024-02-12T21:50:25.809Z,8.10
2024-02-12T21:52:54.662Z,8.70
2024-02-12T21:55:23.838Z,8.30
2024-02-12T21:58:04.883Z,7.20
2024-02-12T22:00:32.522Z,8.50
2024-02-12T22:03:01.237Z,7.50
2024-02-12T22:05:28.944Z,8.10
2024-02-12T22:07:56.645Z,9.00
2024-02-12T22:10:24.308Z,7.30
2024-02-12T22:15:33.223Z,9.40
2024-02-12T22:18:00.956Z,9.90
2024-02-12T22:20:30.273Z,10.40
2024-02-12T22:22:57.949Z,7.00
2024-02-12T22:25:25.874Z,9.20
2024-02-12T22:27:55.152Z,8.80
2024-02-12T22:30:23.919Z,7.50
2024-02-12T22:32:52.394Z,7.40
2024-02-12T22:35:20.924Z,8.40
2024-02-12T22:37:49.252Z,9.60
2024-02-12T22:40:16.909Z,9.60
2024-02-12T22:42:44.415Z,11.80
2024-02-12T22:45:13.394Z,11.20
2024-02-12T22:47:41.479Z,12.90
2024-02-12T22:50:10.615Z,12.50
2024-02-12T22:52:38.492Z,11.80
2024-02-12T22:55:06.192Z,12.20
2024-02-12T22:57:33.753Z,14.50
2024-02-12T23:02:52.770Z,12.40
2024-02-12T23:05:21.062Z,13.10
2024-02-12T23:07:49.034Z,13.30
2024-02-12T23:10:19.621Z,12.70
2024-02-12T23:12:47.377Z,16.70
2024-02-12T23:15:15.709Z,13.50
2024-02-12T23:18:01.890Z,16.50
2024-02-12T23:20:30.390Z,13.70
2024-02-12T23:22:58.254Z,14.60
2024-02-12T23:25:25.985Z,12.90
2024-02-12T23:27:53.741Z,15.00
2024-02-12T23:30:30.651Z,14.40
2024-02-12T23:33:12.921Z,14.10
2024-02-12T23:35:40.843Z,13.10
2024-02-12T23:38:09.022Z,13.90
2024-02-12T23:40:36.682Z,16.30
2024-02-12T23:43:04.710Z,13.40
2024-02-12T23:45:33.372Z,14.10
2024-02-12T23:48:01.938Z,14.80
2024-02-12T23:50:31.539Z,14.10
2024-02-12T23:52:59.155Z,18.20
2024-02-12T23:55:26.745Z,17.50
2024-02-12T23:57:54.258Z,12.30
